Time;durP1;ratioP1;P1;durP2;ratioP2;P2;SDS_P1;SDS_P2;PMS_P1;PMS_P2;Temp;Humidity;BMP_temperature;BMP_pressure;BME280_temperature;BME280_humidity;BME280_pressure;Samples;Min_cycle;Max_cycle;Signal;HPM_P1;HPM_P2
2023/07/29 00:00:47;;;;;;;11.50;7.20;;;19.40;99.90;;;;;;5033737;28;20124;-74
2023/07/29 00:03:13;;;;;;;10.35;7.20;;;19.30;99.90;;;;;;5033795;28;20045;-74
2023/07/29 00:05:39;;;;;;;11.45;7.43;;;19.40;99.90;;;;;;5032945;28;20060;-74
2023/07/29 00:08:05;;;;;;;8.43;7.22;;;19.30;99.90;;;;;;5032905;28;20048;-74
2023/07/29 00:10:37;;;;;;;9.27;7.03;;;19.20;99.90;;;;;;5032715;28;20118;-74
2023/07/29 00:13:03;;;;;;;9.52;7.82;;;19.20;99.90;;;;;;5032763;28;20405;-74
2023/07/29 00:15:28;;;;;;;9.57;7.55;;;19.20;99.90;;;;;;5033005;28;20037;-74
2023/07/29 00:17:54;;;;;;;10.40;7.60;;;19.20;99.90;;;;;;5032721;28;20095;-74
2023/07/29 00:20:19;;;;;;;9.00;8.10;;;19.20;99.90;;;;;;5016415;28;20087;-74
2023/07/29 00:22:45;;;;;;;11.68;8.10;;;19.00;99.90;;;;;;5032604;28;20053;-74
2023/07/29 00:25:10;;;;;;;8.23;7.32;;;19.00;99.90;;;;;;5032584;28;20048;-74
2023/07/29 00:27:36;;;;;;;10.98;7.60;;;19.00;99.90;;;;;;5032541;28;20040;-74
2023/07/29 00:30:02;;;;;;;10.60;7.68;;;19.00;99.90;;;;;;5032370;28;20049;-74
2023/07/29 00:32:30;;;;;;;12.40;7.95;;;18.90;99.90;;;;;;5032460;28;20033;-74
2023/07/29 00:34:56;;;;;;;9.70;8.25;;;18.90;99.90;;;;;;5032430;28;20120;-74
2023/07/29 00:37:21;;;;;;;10.13;7.68;;;18.80;99.90;;;;;;5032347;28;20124;-74
2023/07/29 00:39:47;;;;;;;9.68;8.52;;;18.80;99.90;;;;;;5032301;28;20041;-74
2023/07/29 00:42:13;;;;;;;11.07;7.75;;;18.70;99.90;;;;;;5032348;28;20048;-74
2023/07/29 00:44:38;;;;;;;8.30;6.97;;;18.70;99.90;;;;;;5032571;28;20037;-74
2023/07/29 00:47:05;;;;;;;9.63;7.28;;;18.60;99.90;;;;;;5032268;28;20581;-74
2023/07/29 00:49:32;;;;;;;8.52;7.15;;;18.50;99.90;;;;;;5032067;28;20099;-74
2023/07/29 00:51:58;;;;;;;11.63;6.97;;;18.60;99.90;;;;;;5032542;28;20076;-74
2023/07/29 00:54:23;;;;;;;10.20;7.05;;;18.50;99.90;;;;;;5032403;28;20081;-75
2023/07/29 00:56:49;;;;;;;10.07;6.85;;;18.50;99.90;;;;;;5015675;28;20616;-75
2023/07/29 00:59:15;;;;;;;8.27;6.63;;;18.40;99.90;;;;;;5015570;28;20048;-75
2023/07/29 01:01:41;;;;;;;7.95;6.40;;;18.40;99.90;;;;;;5032242;28;20041;-75
2023/07/29 01:04:06;;;;;;;10.52;6.90;;;18.40;99.90;;;;;;5032032;28;20150;-75
2023/07/29 01:06:47;;;;;;;7.85;6.47;;;18.40;99.90;;;;;;5032246;28;20033;-75
2023/07/29 01:10:08;;;;;;;9.15;7.35;;;18.40;99.90;;;;;;5031864;28;20536;-75
2023/07/29 01:12:56;;;;;;;7.32;6.47;;;18.40;99.90;;;;;;4988696;28;20041;-75
2023/07/29 01:15:26;;;;;;;7.47;6.10;;;18.20;99.90;;;;;;5031873;28;20037;-75
2023/07/29 01:18:08;;;;;;;7.72;6.60;;;18.20;99.90;;;;;;5032104;28;20100;-75
2023/07/29 01:20:38;;;;;;;11.32;7.40;;;18.20;99.90;;;;;;5015735;28;20379;-75
2023/07/29 01:23:04;;;;;;;7.95;6.47;;;18.10;99.90;;;;;;5031771;28;20037;-75
2023/07/29 01:25:30;;;;;;;12.05;6.68;;;18.10;99.90;;;;;;5015565;28;20041;-75
2023/07/29 01:27:56;;;;;;;8.32;6.97;;;18.00;99.90;;;;;;5031686;28;20502;-75
2023/07/29 01:30:28;;;;;;;9.73;6.82;;;18.00;99.90;;;;;;5031540;28;20103;-75
2023/07/29 01:33:14;;;;;;;9.52;7.00;;;17.90;99.90;;;;;;5031726;28;20037;-75
2023/07/29 01:35:47;;;;;;;11.52;7.32;;;17.90;99.90;;;;;;5031685;28;20048;-75
2023/07/29 01:38:34;;;;;;;8.02;6.15;;;17.90;99.90;;;;;;5015455;28;20057;-75
2023/07/29 01:41:05;;;;;;;9.88;6.90;;;17.90;99.90;;;;;;5015089;28;20079;-75
2023/07/29 01:43:32;;;;;;;10.40;6.97;;;17.80;99.90;;;;;;5031844;28;20046;-75
2023/07/29 01:45:58;;;;;;;10.57;7.50;;;17.70;99.90;;;;;;5031530;28;20041;-75
2023/07/29 01:48:24;;;;;;;9.73;7.50;;;17.70;99.90;;;;;;5031444;28;20490;-75
2023/07/29 01:50:50;;;;;;;9.45;6.82;;;17.70;99.90;;;;;;5031310;28;20044;-75
2023/07/29 01:53:15;;;;;;;10.40;7.25;;;17.70;99.90;;;;;;5015056;28;20191;-75
2023/07/29 01:55:41;;;;;;;9.13;7.63;;;17.70;99.90;;;;;;5031514;28;20052;-74
2023/07/29 01:58:07;;;;;;;9.68;7.88;;;17.60;99.90;;;;;;5031418;28;20049;-74
2023/07/29 02:00:33;;;;;;;8.40;7.35;;;17.70;99.90;;;;;;5031367;28;20045;-74
2023/07/29 02:02:58;;;;;;;9.00;6.97;;;17.70;99.90;;;;;;5031638;28;20125;-74
2023/07/29 02:05:24;;;;;;;9.88;7.13;;;17.60;99.90;;;;;;5031375;28;20041;-74
2023/07/29 02:07:49;;;;;;;10.20;7.65;;;17.70;99.90;;;;;;5015120;28;20091;-74
2023/07/29 02:10:15;;;;;;;8.05;7.25;;;17.70;99.90;;;;;;5031165;28;20037;-74
2023/07/29 02:12:41;;;;;;;8.32;6.93;;;17.60;99.90;;;;;;5033987;28;20037;-74
2023/07/29 02:15:07;;;;;;;10.02;7.45;;;17.60;99.90;;;;;;5035337;28;20038;-74
2023/07/29 02:17:33;;;;;;;7.45;6.28;;;17.70;99.90;;;;;;5034974;28;20033;-74
2023/07/29 02:19:59;;;;;;;8.50;7.28;;;17.70;99.90;;;;;;5035158;28;20398;-74
2023/07/29 02:22:24;;;;;;;10.70;6.75;;;17.70;99.90;;;;;;5018464;28;20530;-74
2023/07/29 02:24:50;;;;;;;7.78;6.97;;;17.60;99.90;;;;;;5034857;28;20120;-74
2023/07/29 02:27:16;;;;;;;9.70;7.38;;;17.70;99.90;;;;;;5034820;28;20041;-74
2023/07/29 02:29:41;;;;;;;7.82;6.38;;;17.60;99.90;;;;;;5034656;28;20133;-74
2023/07/29 02:32:07;;;;;;;9.85;7.47;;;17.60;99.90;;;;;;5018312;28;20043;-74
2023/07/29 02:34:32;;;;;;;9.77;6.97;;;17.60;99.90;;;;;;5034688;28;20099;-74
2023/07/29 02:36:58;;;;;;;8.98;7.07;;;17.50;99.90;;;;;;5034688;28;20117;-74
2023/07/29 02:39:24;;;;;;;8.13;6.95;;;17.60;99.90;;;;;;5034568;28;20159;-74
2023/07/29 02:41:49;;;;;;;10.15;6.93;;;17.50;99.90;;;;;;5034559;28;20044;-74
2023/07/29 02:44:15;;;;;;;10.02;6.60;;;17.50;99.90;;;;;;5034767;28;20045;-74
2023/07/29 02:46:41;;;;;;;8.70;6.88;;;17.50;99.90;;;;;;5034728;28;20190;-74
2023/07/29 02:49:07;;;;;;;9.63;6.72;;;17.50;99.90;;;;;;5034247;28;20183;-74
2023/07/29 02:51:32;;;;;;;10.32;6.95;;;17.60;99.90;;;;;;5034599;28;20164;-74
2023/07/29 02:53:58;;;;;;;8.55;6.43;;;17.60;99.90;;;;;;5035430;28;20379;-74
2023/07/29 02:56:24;;;;;;;12.80;7.20;;;17.50;99.90;;;;;;5034322;28;20530;-74
2023/07/29 02:58:51;;;;;;;8.82;6.25;;;17.50;99.90;;;;;;5034544;28;20045;-74
2023/07/29 03:01:17;;;;;;;8.07;6.22;;;17.50;99.90;;;;;;5034135;28;20083;-74
2023/07/29 03:03:42;;;;;;;11.05;6.50;;;17.50;99.90;;;;;;5034178;28;20037;-74
2023/07/29 03:06:10;;;;;;;9.18;6.57;;;17.60;99.90;;;;;;5034356;28;20033;-74
2023/07/29 03:08:36;;;;;;;10.50;6.32;;;17.60;99.90;;;;;;5033982;28;20064;-74
2023/07/29 03:11:07;;;;;;;9.07;5.80;;;17.60;99.90;;;;;;5017649;28;20045;-74
2023/07/29 03:13:33;;;;;;;8.32;6.20;;;17.60;99.90;;;;;;5033918;28;20068;-74
2023/07/29 03:16:09;;;;;;;10.15;5.40;;;17.60;99.90;;;;;;5034188;28;20033;-74
2023/07/29 03:18:35;;;;;;;8.15;6.38;;;17.60;99.90;;;;;;5033889;28;20033;-74
2023/07/29 03:21:02;;;;;;;8.32;6.22;;;17.50;99.90;;;;;;5017283;28;20041;-74
2023/07/29 03:23:31;;;;;;;6.60;5.65;;;17.50;99.90;;;;;;5033529;28;20406;-74
2023/07/29 03:25:58;;;;;;;7.45;5.57;;;17.50;99.90;;;;;;5033781;28;20045;-74
2023/07/29 03:28:27;;;;;;;7.88;5.68;;;17.50;99.90;;;;;;5033780;28;20072;-74
2023/07/29 03:30:53;;;;;;;6.03;5.40;;;17.50;99.90;;;;;;5033570;28;20048;-74
2023/07/29 03:33:19;;;;;;;6.57;5.55;;;17.50;99.90;;;;;;5017084;28;20034;-74
2023/07/29 03:35:44;;;;;;;8.35;5.30;;;17.50;99.90;;;;;;5033541;28;20037;-74
2023/07/29 03:38:11;;;;;;;9.13;5.70;;;17.40;99.90;;;;;;5033485;28;20117;-74
2023/07/29 03:40:38;;;;;;;8.38;6.15;;;17.40;99.90;;;;;;5033345;28;20045;-74
2023/07/29 03:43:04;;;;;;;7.35;5.30;;;17.30;99.90;;;;;;5033674;28;20144;-75
2023/07/29 03:45:29;;;;;;;6.50;5.25;;;17.30;99.90;;;;;;5033617;28;20510;-75
2023/07/29 03:47:55;;;;;;;7.28;5.10;;;17.20;99.90;;;;;;5033357;28;20071;-74
2023/07/29 03:50:21;;;;;;;8.38;5.40;;;17.20;99.90;;;;;;5033029;28;20084;-74
2023/07/29 03:52:46;;;;;;;6.65;5.20;;;17.20;99.90;;;;;;5033359;28;20033;-74
2023/07/29 03:55:12;;;;;;;10.05;5.00;;;17.20;99.90;;;;;;5033166;28;20055;-74
2023/07/29 03:57:37;;;;;;;6.78;4.43;;;17.10;99.90;;;;;;5033175;28;20044;-74
2023/07/29 04:00:04;;;;;;;7.35;5.25;;;17.10;99.90;;;;;;5016554;28;20041;-74
2023/07/29 04:02:30;;;;;;;10.18;5.10;;;17.10;99.90;;;;;;5033314;28;20045;-74
2023/07/29 04:04:55;;;;;;;6.88;4.95;;;17.10;99.90;;;;;;5032999;28;20041;-74
2023/07/29 04:07:21;;;;;;;8.85;4.93;;;17.10;99.90;;;;;;5032937;28;20179;-74
2023/07/29 04:09:47;;;;;;;8.35;4.97;;;17.00;99.90;;;;;;5032891;28;20037;-74
2023/07/29 04:12:12;;;;;;;7.28;4.78;;;17.00;99.90;;;;;;5032863;28;20083;-74
2023/07/29 04:14:38;;;;;;;6.65;4.13;;;17.00;99.90;;;;;;5033068;28;20038;-74
2023/07/29 04:17:04;;;;;;;5.85;4.60;;;17.10;99.90;;;;;;5032739;28;20033;-74
2023/07/29 04:19:29;;;;;;;9.48;4.32;;;17.10;99.90;;;;;;5032632;28;20041;-74
2023/07/29 04:21:55;;;;;;;7.40;4.30;;;17.10;99.90;;;;;;5032968;28;20040;-74
2023/07/29 04:24:23;;;;;;;6.13;4.20;;;17.10;99.90;;;;;;5032670;28;20504;-74
2023/07/29 04:26:49;;;;;;;5.10;4.15;;;17.10;99.90;;;;;;5032620;28;20055;-74
2023/07/29 04:29:14;;;;;;;7.35;4.35;;;17.20;99.90;;;;;;5032483;28;20133;-74
2023/07/29 04:31:40;;;;;;;5.88;3.95;;;17.20;99.90;;;;;;5032694;28;20033;-74
2023/07/29 04:34:06;;;;;;;6.05;4.40;;;17.20;99.90;;;;;;5016311;28;20121;-74
2023/07/29 04:36:31;;;;;;;7.97;4.03;;;17.20;99.90;;;;;;5031605;28;20164;-74
2023/07/29 04:38:58;;;;;;;5.90;3.85;;;17.20;99.90;;;;;;5032626;28;20048;-74
2023/07/29 04:41:24;;;;;;;5.57;3.70;;;17.20;99.90;;;;;;5032312;28;20033;-74
2023/07/29 04:43:49;;;;;;;5.72;3.88;;;17.20;99.90;;;;;;5032308;28;20175;-74
2023/07/29 04:46:15;;;;;;;5.50;3.50;;;17.30;99.90;;;;;;5032390;28;20041;-74
2023/07/29 04:48:41;;;;;;;5.88;3.75;;;17.20;99.90;;;;;;5032439;28;20053;-74
2023/07/29 04:51:06;;;;;;;5.32;3.42;;;17.30;99.90;;;;;;5032534;28;20037;-74
2023/07/29 04:53:32;;;;;;;5.22;2.85;;;17.20;99.90;;;;;;5032224;28;20045;-74
2023/07/29 04:55:58;;;;;;;9.90;3.20;;;17.30;99.90;;;;;;5032482;28;20124;-74
2023/07/29 04:58:23;;;;;;;6.10;3.30;;;17.30;99.90;;;;;;5032113;28;20512;-74
2023/07/29 05:00:49;;;;;;;5.90;3.17;;;17.30;99.90;;;;;;5032070;28;20046;-74
2023/07/29 05:03:15;;;;;;;4.05;3.00;;;17.20;99.90;;;;;;5015929;28;20048;-74
2023/07/29 05:05:40;;;;;;;4.45;3.03;;;17.20;99.90;;;;;;5032030;28;20099;-74
2023/07/29 05:08:06;;;;;;;5.78;2.85;;;17.20;99.90;;;;;;5032167;28;20037;-74
2023/07/29 05:10:32;;;;;;;5.53;2.85;;;17.20;99.90;;;;;;5031970;28;20048;-74
2023/07/29 05:12:57;;;;;;;7.95;2.90;;;17.20;99.90;;;;;;5032011;28;20083;-74
2023/07/29 05:15:23;;;;;;;4.82;2.72;;;17.20;99.90;;;;;;5031904;28;20041;-74
2023/07/29 05:17:48;;;;;;;6.13;2.90;;;17.20;99.90;;;;;;5031888;28;20029;-74
2023/07/29 05:20:14;;;;;;;7.20;3.00;;;17.20;99.90;;;;;;5031802;28;20071;-74
2023/07/29 05:22:39;;;;;;;7.40;2.72;;;17.20;99.90;;;;;;5032127;28;20045;-74
2023/07/29 05:25:06;;;;;;;3.72;2.78;;;17.30;99.90;;;;;;5032074;28;20041;-74
2023/07/29 05:27:31;;;;;;;5.38;2.72;;;17.20;99.90;;;;;;5015416;28;20059;-74
2023/07/29 05:29:57;;;;;;;5.70;2.40;;;17.30;99.90;;;;;;5031747;28;20046;-74
2023/07/29 05:32:22;;;;;;;3.97;2.40;;;17.30;99.90;;;;;;5015339;28;20044;-74
2023/07/29 05:34:48;;;;;;;6.05;2.63;;;17.30;99.90;;;;;;5031997;28;20124;-75
2023/07/29 05:37:13;;;;;;;5.97;2.72;;;17.30;99.90;;;;;;5031765;28;20410;-77
2023/07/29 05:39:39;;;;;;;3.38;2.33;;;17.40;99.90;;;;;;5015459;28;20041;-77
2023/07/29 05:42:05;;;;;;;7.57;2.60;;;17.30;99.90;;;;;;5031665;28;20041;-78
2023/07/29 05:44:31;;;;;;;7.05;2.83;;;17.30;99.90;;;;;;5015499;28;20111;-78
2023/07/29 05:46:57;;;;;;;4.95;3.08;;;17.30;99.90;;;;;;5033487;28;20494;-78
2023/07/29 05:49:23;;;;;;;4.10;2.33;;;17.30;99.90;;;;;;5035334;28;20041;-78
2023/07/29 05:51:48;;;;;;;4.55;2.53;;;17.30;99.90;;;;;;5019166;28;20140;-78
2023/07/29 05:54:14;;;;;;;6.25;2.80;;;17.40;99.90;;;;;;5035836;28;20045;-78
2023/07/29 05:56:39;;;;;;;6.68;2.83;;;17.40;99.90;;;;;;5019301;28;20506;-78
2023/07/29 05:59:05;;;;;;;5.97;3.33;;;17.40;99.90;;;;;;5035432;28;20040;-78
2023/07/29 06:01:30;;;;;;;9.68;3.47;;;17.40;99.90;;;;;;5018931;28;20049;-78
2023/07/29 06:03:56;;;;;;;5.07;2.97;;;17.50;99.90;;;;;;5035676;28;20084;-78
2023/07/29 06:06:23;;;;;;;9.38;3.50;;;17.40;99.90;;;;;;5018891;28;20053;-78
2023/07/29 06:08:49;;;;;;;9.00;3.67;;;17.50;99.90;;;;;;5018961;28;20048;-78
2023/07/29 06:11:15;;;;;;;5.82;3.40;;;17.50;99.90;;;;;;5018628;28;20410;-78
2023/07/29 06:13:41;;;;;;;13.73;4.45;;;17.50;99.90;;;;;;5035185;28;20041;-78
2023/07/29 06:16:06;;;;;;;7.82;4.05;;;17.60;99.90;;;;;;5035403;28;20045;-78
2023/07/29 06:18:32;;;;;;;10.05;4.20;;;17.50;99.90;;;;;;5018625;28;20516;-78
2023/07/29 06:20:57;;;;;;;10.40;4.10;;;17.50;99.90;;;;;;5018496;28;20037;-78
2023/07/29 06:23:23;;;;;;;6.65;3.78;;;17.60;99.90;;;;;;5018828;28;20124;-78
2023/07/29 06:25:48;;;;;;;10.27;4.03;;;17.70;99.90;;;;;;5018564;28;20559;-78
2023/07/29 06:28:14;;;;;;;8.18;4.35;;;17.70;99.90;;;;;;5034936;28;20049;-78
2023/07/29 06:30:40;;;;;;;10.38;4.53;;;17.90;99.90;;;;;;5018356;28;20077;-78
2023/07/29 06:33:06;;;;;;;11.85;3.83;;;18.00;99.90;;;;;;5034815;28;20124;-78
2023/07/29 06:35:31;;;;;;;8.68;4.35;;;18.10;99.90;;;;;;5034794;28;20072;-78
2023/07/29 06:37:57;;;;;;;8.07;4.10;;;18.10;99.90;;;;;;5018548;28;20084;-78
2023/07/29 06:40:22;;;;;;;8.57;4.03;;;18.20;99.90;;;;;;5034614;28;20406;-78
2023/07/29 06:42:48;;;;;;;7.70;3.92;;;18.20;99.90;;;;;;5018460;28;20041;-78
2023/07/29 06:45:15;;;;;;;11.10;4.20;;;18.30;99.90;;;;;;5018109;28;20106;-78
2023/07/29 06:47:41;;;;;;;12.52;4.20;;;18.40;99.90;;;;;;5018082;28;20053;-78
2023/07/29 06:50:06;;;;;;;11.93;4.07;;;18.40;99.90;;;;;;5034266;28;20041;-78
2023/07/29 06:52:32;;;;;;;10.57;4.15;;;18.40;99.90;;;;;;5017964;28;20041;-78
2023/07/29 06:54:58;;;;;;;9.25;4.45;;;18.40;99.90;;;;;;5034392;28;20384;-78
2023/07/29 06:57:24;;;;;;;11.20;4.68;;;18.40;99.90;;;;;;5034459;28;20052;-78
2023/07/29 06:59:49;;;;;;;13.25;5.35;;;18.40;99.90;;;;;;5017223;28;20537;-78
2023/07/29 07:02:15;;;;;;;6.97;4.28;;;18.50;99.90;;;;;;5018072;28;20041;-78
2023/07/29 07:04:40;;;;;;;11.63;4.65;;;18.60;99.90;;;;;;5018010;28;20037;-78
2023/07/29 07:07:06;;;;;;;12.23;5.13;;;18.60;99.90;;;;;;5017768;28;20442;-78
2023/07/29 07:09:32;;;;;;;10.05;4.82;;;18.60;99.90;;;;;;5017539;28;20083;-78
2023/07/29 07:11:57;;;;;;;10.98;4.78;;;18.80;99.90;;;;;;5034078;28;20125;-78
2023/07/29 07:14:23;;;;;;;11.25;5.30;;;18.90;99.90;;;;;;5034056;28;20033;-78
2023/07/29 07:16:49;;;;;;;10.77;4.80;;;19.00;99.90;;;;;;5033969;28;20090;-78
2023/07/29 07:19:14;;;;;;;9.50;5.05;;;19.10;99.90;;;;;;5033984;28;20041;-78
2023/07/29 07:21:40;;;;;;;8.93;4.95;;;19.20;99.90;;;;;;5035491;28;20132;-78
2023/07/29 07:24:05;;;;;;;10.93;5.10;;;19.20;99.90;;;;;;5034158;28;20454;-78
2023/07/29 07:26:31;;;;;;;9.13;5.00;;;19.10;99.90;;;;;;5033834;28;20041;-78
2023/07/29 07:28:57;;;;;;;11.13;5.13;;;19.10;99.90;;;;;;5033684;28;20042;-78
2023/07/29 07:31:22;;;;;;;8.95;4.90;;;19.20;99.90;;;;;;5017189;28;20033;-78
2023/07/29 07:33:48;;;;;;;9.45;4.80;;;19.20;99.90;;;;;;5017464;28;20083;-78
2023/07/29 07:36:15;;;;;;;9.90;4.88;;;19.30;99.90;;;;;;5033651;28;20037;-78
2023/07/29 07:38:41;;;;;;;11.65;4.82;;;19.30;99.90;;;;;;5017374;28;20083;-78
2023/07/29 07:41:06;;;;;;;15.80;4.35;;;19.40;99.90;;;;;;5016988;28;20034;-78
2023/07/29 07:43:32;;;;;;;8.95;4.55;;;19.50;99.90;;;;;;5033446;28;20087;-78
2023/07/29 07:45:59;;;;;;;10.40;5.28;;;19.50;99.90;;;;;;5033488;28;20042;-78
2023/07/29 07:48:25;;;;;;;7.07;4.07;;;19.60;99.90;;;;;;5033631;28;20034;-78
2023/07/29 07:50:51;;;;;;;10.13;5.05;;;19.60;99.90;;;;;;5016575;28;20045;-78
2023/07/29 07:53:16;;;;;;;9.25;4.22;;;19.60;99.90;;;;;;5017115;28;20041;-78
2023/07/29 07:55:42;;;;;;;9.63;4.35;;;19.70;99.90;;;;;;5033530;28;20037;-78
2023/07/29 07:58:07;;;;;;;9.25;4.68;;;19.70;99.90;;;;;;5033274;28;20507;-78
2023/07/29 08:00:33;;;;;;;8.48;4.30;;;19.80;99.90;;;;;;5016621;28;20049;-78
2023/07/29 08:02:59;;;;;;;11.57;4.43;;;19.70;99.90;;;;;;5033152;28;20069;-78
2023/07/29 08:05:24;;;;;;;7.97;4.30;;;19.70;99.90;;;;;;5016681;28;20046;-78
2023/07/29 08:07:50;;;;;;;8.43;4.18;;;19.80;99.90;;;;;;5033096;28;20037;-78
2023/07/29 08:10:15;;;;;;;6.13;4.00;;;19.80;99.90;;;;;;5016278;28;20073;-78
2023/07/29 08:12:41;;;;;;;9.95;4.18;;;19.80;99.90;;;;;;5016560;28;20095;-78
2023/07/29 08:15:07;;;;;;;9.25;3.65;;;19.90;99.90;;;;;;5016417;28;20033;-78
2023/07/29 08:17:32;;;;;;;8.15;3.72;;;19.90;99.90;;;;;;5016692;28;20041;-78
2023/07/29 08:19:58;;;;;;;7.47;3.30;;;19.90;99.90;;;;;;5032801;28;20138;-78
2023/07/29 08:22:23;;;;;;;11.43;3.40;;;19.90;99.90;;;;;;5033046;28;20048;-78
2023/07/29 08:24:49;;;;;;;10.40;4.15;;;20.10;99.90;;;;;;5016323;28;20132;-78
2023/07/29 08:27:14;;;;;;;9.32;4.05;;;20.30;99.90;;;;;;5016528;28;20045;-78
2023/07/29 08:29:40;;;;;;;5.90;2.92;;;20.40;99.90;;;;;;5016088;28;20037;-78
2023/07/29 08:32:06;;;;;;;13.02;3.22;;;20.50;99.90;;;;;;5032625;28;20037;-78
2023/07/29 08:34:31;;;;;;;10.63;3.75;;;20.70;99.90;;;;;;5032829;28;20596;-78
2023/07/29 08:36:57;;;;;;;8.10;3.30;;;20.90;99.90;;;;;;5016096;28;20037;-78
2023/07/29 08:39:23;;;;;;;5.85;2.85;;;20.90;99.90;;;;;;5016260;28;20049;-78
2023/07/29 08:42:00;;;;;;;8.05;2.90;;;20.80;99.90;;;;;;5032703;28;20073;-78
2023/07/29 08:44:35;;;;;;;6.60;2.75;;;20.80;99.90;;;;;;5015967;28;20045;-78
2023/07/29 08:47:01;;;;;;;5.53;2.30;;;20.70;99.90;;;;;;5032719;28;20041;-78
2023/07/29 08:49:28;;;;;;;4.32;2.17;;;20.70;99.90;;;;;;5015610;28;20055;-77
2023/07/29 08:51:54;;;;;;;7.18;2.67;;;20.70;99.90;;;;;;5032277;28;20041;-78
2023/07/29 08:54:20;;;;;;;7.57;2.45;;;20.70;99.90;;;;;;5032251;28;20510;-78
2023/07/29 08:56:46;;;;;;;7.63;2.45;;;20.70;99.90;;;;;;5016060;28;20092;-78
2023/07/29 08:59:13;;;;;;;6.60;2.25;;;20.80;99.90;;;;;;5015746;28;20045;-78
2023/07/29 09:01:39;;;;;;;7.30;2.72;;;20.90;99.90;;;;;;5032086;28;20038;-78
2023/07/29 09:04:05;;;;;;;5.20;2.50;;;20.80;99.90;;;;;;5032154;28;20107;-78
2023/07/29 09:06:32;;;;;;;6.93;2.65;;;21.10;99.90;;;;;;5032308;28;20045;-78
2023/07/29 09:08:59;;;;;;;7.15;2.60;;;21.40;99.90;;;;;;5031984;28;20037;-78
2023/07/29 09:11:25;;;;;;;6.97;2.30;;;21.50;99.90;;;;;;5032230;28;20099;-78
2023/07/29 09:13:51;;;;;;;10.00;2.67;;;21.60;99.90;;;;;;5015397;28;20449;-78
2023/07/29 09:16:17;;;;;;;6.95;2.20;;;21.80;99.90;;;;;;5032174;28;20042;-78
2023/07/29 09:18:42;;;;;;;4.03;1.60;;;22.10;99.90;;;;;;5015394;28;20417;-78
2023/07/29 09:21:08;;;;;;;6.20;1.83;;;22.30;99.90;;;;;;5014884;28;20037;-78
2023/07/29 09:23:44;;;;;;;7.78;2.10;;;22.40;99.90;;;;;;5032141;28;20033;-78
2023/07/29 09:26:11;;;;;;;5.07;2.17;;;22.40;99.90;;;;;;5031826;28;20033;-78
2023/07/29 09:28:40;;;;;;;6.25;2.88;;;22.40;99.90;;;;;;5031805;28;20447;-78
2023/07/29 09:31:07;;;;;;;4.63;2.40;;;22.40;99.90;;;;;;5031732;28;20045;-78
2023/07/29 09:33:39;;;;;;;6.22;2.30;;;22.40;99.90;;;;;;5015563;28;20049;-78
2023/07/29 09:36:11;;;;;;;6.22;1.92;;;22.50;99.90;;;;;;5015297;28;20048;-78
2023/07/29 09:38:37;;;;;;;8.63;2.60;;;22.70;99.90;;;;;;5015299;28;20029;-78
2023/07/29 09:41:02;;;;;;;6.75;2.30;;;22.70;99.90;;;;;;5015439;28;20061;-78
2023/07/29 09:43:33;;;;;;;5.10;2.08;;;22.80;99.90;;;;;;5031682;28;20041;-78
2023/07/29 09:46:03;;;;;;;5.80;2.38;;;22.90;99.90;;;;;;5015229;28;20088;-78
2023/07/29 09:48:36;;;;;;;4.85;1.40;;;23.20;99.90;;;;;;5031599;28;20091;-78
2023/07/29 09:51:12;;;;;;;6.85;2.30;;;23.30;99.90;;;;;;5031615;28;20037;-78
2023/07/29 09:53:47;;;;;;;5.15;2.00;;;23.30;99.90;;;;;;5015226;28;20034;-78
2023/07/29 09:56:14;;;;;;;4.55;1.77;;;23.40;99.90;;;;;;5015151;28;20049;-78
2023/07/29 09:58:40;;;;;;;5.63;2.05;;;23.40;99.90;;;;;;5015122;28;20038;-78
2023/07/29 10:01:06;;;;;;;3.60;1.30;;;23.30;99.90;;;;;;5015255;28;20095;-78
2023/07/29 10:03:33;;;;;;;5.25;1.70;;;23.30;99.90;;;;;;5015139;28;20041;-78
2023/07/29 10:06:03;;;;;;;5.28;1.60;;;23.20;99.90;;;;;;5031791;28;20048;-78
2023/07/29 10:08:31;;;;;;;9.90;2.20;;;23.00;99.90;;;;;;5031744;28;20042;-78
2023/07/29 10:10:59;;;;;;;7.68;1.80;;;23.00;99.90;;;;;;5031341;28;20046;-78
2023/07/29 10:13:26;;;;;;;4.28;1.70;;;23.00;99.90;;;;;;5031415;28;20080;-78
2023/07/29 10:15:53;;;;;;;4.82;1.52;;;23.30;99.90;;;;;;5031414;28;20033;-78
2023/07/29 10:18:19;;;;;;;4.65;1.30;;;23.50;99.90;;;;;;5031362;28;20490;-78
2023/07/29 10:20:46;;;;;;;3.95;1.40;;;23.60;99.90;;;;;;5031245;28;20049;-78
2023/07/29 10:23:15;;;;;;;5.32;1.60;;;23.50;99.90;;;;;;5031335;28;20617;-78
2023/07/29 10:25:48;;;;;;;5.75;1.70;;;23.20;99.90;;;;;;5014844;28;20463;-78
2023/07/29 10:28:15;;;;;;;6.60;1.48;;;23.00;99.90;;;;;;5031364;28;20045;-78
2023/07/29 10:30:42;;;;;;;6.95;1.50;;;22.90;99.90;;;;;;5015100;28;20048;-78
2023/07/29 10:33:08;;;;;;;6.68;1.75;;;22.80;99.90;;;;;;5031704;28;20128;-77
2023/07/29 10:35:34;;;;;;;6.60;2.00;;;22.80;99.90;;;;;;5018361;28;20462;-78
2023/07/29 10:38:04;;;;;;;6.35;1.50;;;22.80;99.90;;;;;;5018322;28;20048;-78
2023/07/29 10:40:56;;;;;;;4.68;1.63;;;22.60;99.90;;;;;;5034617;28;20042;-78
2023/07/29 10:43:33;;;;;;;5.95;1.50;;;22.40;99.90;;;;;;5010473;28;20084;-78
2023/07/29 10:46:18;;;;;;;8.57;1.98;;;22.20;99.90;;;;;;5034913;28;20045;-78
2023/07/29 10:48:55;;;;;;;4.68;1.95;;;22.10;99.90;;;;;;5034586;28;20043;-78
2023/07/29 10:51:32;;;;;;;4.20;1.50;;;21.90;99.90;;;;;;5034698;28;20042;-78
2023/07/29 10:54:12;;;;;;;4.68;1.80;;;21.80;99.90;;;;;;5018327;28;20406;-78
2023/07/29 10:56:48;;;;;;;3.70;1.48;;;21.80;99.90;;;;;;5034674;28;20046;-78
2023/07/29 10:59:20;;;;;;;7.88;1.80;;;21.60;99.90;;;;;;5017910;28;20037;-78
2023/07/29 11:01:57;;;;;;;7.00;1.55;;;21.30;99.90;;;;;;5017907;28;20041;-78
2023/07/29 11:04:24;;;;;;;7.47;1.40;;;21.00;99.90;;;;;;5034622;28;20045;-78
2023/07/29 11:07:12;;;;;;;3.53;1.30;;;20.70;99.90;;;;;;5017865;28;20048;-78
2023/07/29 11:09:56;;;;;;;3.90;1.50;;;20.60;99.90;;;;;;5021828;28;20050;-78
2023/07/29 11:12:54;;;;;;;4.68;1.60;;;20.60;99.90;;;;;;5034223;28;20041;-78
2023/07/29 11:15:30;;;;;;;7.47;1.50;;;20.70;99.90;;;;;;5034181;28;20045;-78
2023/07/29 11:18:01;;;;;;;4.82;1.70;;;20.70;99.90;;;;;;5017635;28;20517;-78
2023/07/29 11:20:31;;;;;;;5.78;1.95;;;20.80;99.90;;;;;;5033915;28;20597;-78
2023/07/29 11:22:59;;;;;;;3.63;1.83;;;20.80;99.90;;;;;;5034228;28;20045;-78
2023/07/29 11:25:27;;;;;;;4.28;1.80;;;20.80;99.90;;;;;;5033853;28;20524;-78
2023/07/29 11:27:55;;;;;;;5.25;1.98;;;21.00;99.90;;;;;;5017652;28;20038;-78
2023/07/29 11:30:23;;;;;;;5.13;2.35;;;21.20;99.90;;;;;;5017128;28;20120;-78
2023/07/29 11:32:48;;;;;;;6.28;2.30;;;21.20;99.90;;;;;;5017288;28;20046;-78
2023/07/29 11:35:16;;;;;;;7.70;3.08;;;21.20;99.90;;;;;;5017186;28;20040;-78
2023/07/29 11:37:47;;;;;;;5.72;2.50;;;21.20;99.90;;;;;;5033922;28;20136;-78
2023/07/29 11:40:18;;;;;;;5.50;2.42;;;21.20;99.90;;;;;;5033560;28;20048;-77
2023/07/29 11:42:45;;;;;;;5.82;2.17;;;21.30;99.90;;;;;;5033829;28;20076;-78
2023/07/29 11:45:12;;;;;;;4.80;2.40;;;21.30;99.90;;;;;;5016670;28;20045;-78
2023/07/29 11:47:37;;;;;;;7.72;2.42;;;21.30;99.90;;;;;;5033516;28;20128;-78
2023/07/29 11:50:15;;;;;;;7.88;3.08;;;21.40;99.90;;;;;;5033189;28;20120;-78
2023/07/29 11:52:42;;;;;;;9.63;2.55;;;21.40;99.90;;;;;;5016911;28;20418;-78
2023/07/29 11:55:08;;;;;;;6.38;2.75;;;21.30;99.90;;;;;;5016932;28;20040;-78
2023/07/29 11:57:36;;;;;;;8.35;2.47;;;21.30;99.90;;;;;;5016801;28;20041;-78
2023/07/29 12:00:06;;;;;;;6.78;2.00;;;21.40;99.90;;;;;;5016681;28;20045;-78
2023/07/29 12:02:32;;;;;;;5.57;2.20;;;21.50;99.90;;;;;;5016674;28;20037;-77
2023/07/29 12:04:58;;;;;;;5.18;2.00;;;21.90;99.90;;;;;;5033176;28;20033;-78
2023/07/29 12:07:24;;;;;;;4.85;1.90;;;22.20;99.90;;;;;;5033405;28;20033;-78
2023/07/29 12:09:50;;;;;;;4.88;1.90;;;22.40;99.90;;;;;;5033090;28;20094;-78
2023/07/29 12:12:16;;;;;;;5.10;2.05;;;22.50;99.90;;;;;;5033005;28;20038;-78
2023/07/29 12:14:48;;;;;;;5.32;2.30;;;22.60;99.90;;;;;;5033253;28;20033;-78
2023/07/29 12:17:15;;;;;;;6.32;2.42;;;22.80;99.90;;;;;;5032925;28;20044;-78
2023/07/29 12:19:41;;;;;;;6.18;2.08;;;23.10;99.90;;;;;;5016243;28;20048;-78
2023/07/29 12:22:09;;;;;;;4.65;1.83;;;23.30;99.90;;;;;;5016341;28;20091;-78
2023/07/29 12:24:40;;;;;;;5.70;2.17;;;23.30;99.90;;;;;;5032997;28;20405;-78
2023/07/29 12:27:10;;;;;;;5.13;2.10;;;23.10;99.90;;;;;;5032755;28;20144;-78
2023/07/29 12:29:40;;;;;;;4.07;2.03;;;22.90;99.90;;;;;;5016055;28;20044;-78
2023/07/29 12:32:06;;;;;;;6.72;2.28;;;22.80;99.90;;;;;;5032716;28;20034;-78
2023/07/29 12:34:32;;;;;;;6.45;2.10;;;22.70;99.90;;;;;;5032556;28;20091;-78
2023/07/29 12:37:02;;;;;;;5.50;2.20;;;22.90;99.90;;;;;;5032625;28;20453;-78
2023/07/29 12:39:30;;;;;;;4.50;2.00;;;23.30;99.90;;;;;;5032426;28;20041;-78
2023/07/29 12:41:58;;;;;;;3.88;1.80;;;23.60;99.90;;;;;;5032465;28;20041;-78
2023/07/29 12:44:34;;;;;;;5.03;1.90;;;23.90;99.90;;;;;;5016236;28;20077;-78
2023/07/29 12:47:05;;;;;;;4.00;1.52;;;24.20;99.90;;;;;;5032418;28;20041;-78